Time;durP1;ratioP1;P1;durP2;ratioP2;P2;SDS_P1;SDS_P2;PMS_P1;PMS_P2;Temp;Humidity;BMP_temperature;BMP_pressure;BME280_temperature;BME280_humidity;BME280_pressure;Samples;Min_cycle;Max_cycle;Signal;HPM_P1;HPM_P2
2023/12/07 00:01:41;;;;;;;22.25;13.25;;;2.90;99.90;;;;;;5050541;28;20024;-94
2023/12/07 00:04:06;;;;;;;15.57;12.45;;;3.00;99.90;;;;;;5055954;28;20318;-94
2023/12/07 00:06:32;;;;;;;18.10;11.10;;;2.90;99.90;;;;;;5045591;28;20021;-93
2023/12/07 00:08:58;;;;;;;22.17;12.70;;;2.90;99.90;;;;;;5042986;28;20273;-93
2023/12/07 00:11:24;;;;;;;18.10;12.25;;;3.00;99.90;;;;;;5050293;28;20028;-93
2023/12/07 00:13:50;;;;;;;20.35;12.27;;;3.00;99.90;;;;;;5056827;28;20021;-92
2023/12/07 00:16:16;;;;;;;21.85;14.52;;;3.00;99.90;;;;;;5046345;28;20517;-93
2023/12/07 00:18:44;;;;;;;20.83;12.75;;;3.00;99.90;;;;;;5049015;28;20033;-92
2023/12/07 00:21:13;;;;;;;18.20;11.45;;;3.00;99.90;;;;;;5053134;28;20029;-93
2023/12/07 00:23:38;;;;;;;18.77;12.35;;;3.00;99.90;;;;;;5049955;28;20022;-93
2023/12/07 00:26:04;;;;;;;20.77;12.60;;;3.00;99.90;;;;;;5052095;28;20047;-94
2023/12/07 00:28:30;;;;;;;19.52;12.63;;;3.00;99.90;;;;;;5049475;28;20033;-92
2023/12/07 00:30:56;;;;;;;19.88;11.90;;;2.90;99.90;;;;;;5048425;28;20066;-93
2023/12/07 00:33:22;;;;;;;14.60;10.23;;;2.90;99.90;;;;;;5060057;28;20038;-93
2023/12/07 00:35:48;;;;;;;17.05;9.48;;;3.00;99.90;;;;;;5045177;28;20041;-93
2023/12/07 00:38:14;;;;;;;17.02;11.13;;;3.00;99.90;;;;;;5044463;28;20497;-93
2023/12/07 00:40:40;;;;;;;16.35;9.40;;;3.00;99.90;;;;;;5043470;28;20021;-93
2023/12/07 00:43:07;;;;;;;14.88;10.20;;;3.00;99.90;;;;;;5053565;28;20049;-93
2023/12/07 00:45:32;;;;;;;13.90;8.48;;;3.00;99.90;;;;;;5063225;28;20053;-93
2023/12/07 00:47:58;;;;;;;15.23;10.82;;;3.00;99.90;;;;;;5047279;28;20033;-93
2023/12/07 00:50:24;;;;;;;15.52;9.95;;;2.90;99.90;;;;;;5049032;28;20056;-93
2023/12/07 00:52:49;;;;;;;17.10;9.98;;;3.00;99.90;;;;;;5052291;28;20025;-92
2023/12/07 00:55:18;;;;;;;14.70;10.18;;;2.90;99.90;;;;;;5048519;28;20038;-92
2023/12/07 00:57:44;;;;;;;15.63;9.32;;;3.00;99.90;;;;;;5052004;28;20033;-96
2023/12/07 01:00:10;;;;;;;17.40;10.30;;;2.90;99.90;;;;;;5055132;28;20040;-94
2023/12/07 01:02:36;;;;;;;17.25;10.82;;;2.90;99.90;;;;;;5059834;28;20021;-95
2023/12/07 01:05:01;;;;;;;14.82;10.45;;;3.00;99.90;;;;;;5057287;28;20129;-93
2023/12/07 01:07:27;;;;;;;15.93;11.23;;;2.90;99.90;;;;;;5057173;28;20068;-91
2023/12/07 01:09:53;;;;;;;15.48;8.90;;;2.90;99.90;;;;;;5049921;28;20291;-93
2023/12/07 01:12:22;;;;;;;18.13;10.82;;;2.90;99.90;;;;;;5057446;28;20025;-93
2023/12/07 01:14:48;;;;;;;14.48;9.23;;;3.00;99.90;;;;;;5049347;28;20036;-92
2023/12/07 01:17:14;;;;;;;16.17;10.00;;;3.00;99.90;;;;;;5062277;28;20029;-92
2023/12/07 01:19:42;;;;;;;19.73;10.77;;;3.00;99.90;;;;;;5038173;28;20041;-93
2023/12/07 01:22:08;;;;;;;18.58;9.98;;;2.90;99.90;;;;;;5040449;28;20045;-93
2023/12/07 01:24:33;;;;;;;17.27;10.15;;;2.90;99.90;;;;;;5051711;28;20032;-93
2023/12/07 01:26:59;;;;;;;15.55;11.55;;;2.80;99.90;;;;;;5049241;28;20021;-92
2023/12/07 01:29:25;;;;;;;17.80;10.80;;;2.80;99.90;;;;;;5054693;28;20049;-92
2023/12/07 01:31:50;;;;;;;20.40;10.88;;;2.80;99.90;;;;;;5045649;28;20025;-93
2023/12/07 01:34:18;;;;;;;16.77;10.45;;;2.70;99.90;;;;;;5046435;28;20314;-93
2023/12/07 01:36:44;;;;;;;16.80;11.25;;;2.60;99.90;;;;;;5044950;28;20021;-92
2023/12/07 01:39:12;;;;;;;17.30;10.30;;;2.60;99.90;;;;;;5054143;28;20026;-93
2023/12/07 01:41:40;;;;;;;16.95;10.75;;;2.60;99.90;;;;;;5044131;28;20021;-92
2023/12/07 01:44:06;;;;;;;17.63;10.98;;;2.60;99.90;;;;;;5054279;28;20070;-93
2023/12/07 01:46:33;;;;;;;17.85;11.18;;;2.60;99.90;;;;;;5045915;28;20438;-95
2023/12/07 01:48:59;;;;;;;17.75;10.73;;;2.60;99.90;;;;;;5049737;28;20025;-93
2023/12/07 01:51:26;;;;;;;17.95;11.18;;;2.60;99.90;;;;;;5047180;28;20033;-93
2023/12/07 01:53:52;;;;;;;15.40;10.25;;;2.60;99.90;;;;;;5047417;28;20025;-93
2023/12/07 01:56:18;;;;;;;18.10;9.70;;;2.60;99.90;;;;;;5050581;28;20115;-93
2023/12/07 01:58:44;;;;;;;14.40;8.82;;;2.50;99.90;;;;;;5055966;28;20029;-93
2023/12/07 02:01:11;;;;;;;14.93;9.30;;;2.50;99.90;;;;;;5048959;28;20017;-93
2023/12/07 02:03:40;;;;;;;16.75;11.40;;;2.50;99.90;;;;;;5047214;28;20041;-93
2023/12/07 02:06:06;;;;;;;16.80;10.20;;;2.50;99.90;;;;;;5045738;28;20028;-93
2023/12/07 02:08:31;;;;;;;16.30;11.43;;;2.40;99.90;;;;;;5055098;28;20005;-92
2023/12/07 02:10:59;;;;;;;15.38;10.95;;;2.40;99.90;;;;;;5046073;28;20108;-96
2023/12/07 02:13:25;;;;;;;17.10;10.88;;;2.40;99.90;;;;;;5045250;28;20045;-93
2023/12/07 02:15:53;;;;;;;17.88;11.30;;;2.40;99.90;;;;;;5058393;28;20033;-93
2023/12/07 02:18:34;;;;;;;17.05;9.20;;;2.30;99.90;;;;;;5055009;28;20045;-92
2023/12/07 02:21:24;;;;;;;13.85;10.20;;;2.30;99.90;;;;;;5028614;28;20040;-95
2023/12/07 02:23:53;;;;;;;18.67;10.80;;;2.30;99.90;;;;;;5051146;28;20026;-93
2023/12/07 02:26:21;;;;;;;13.25;9.15;;;2.20;99.90;;;;;;5055477;28;20477;-92
2023/12/07 02:28:47;;;;;;;15.68;10.82;;;2.10;99.90;;;;;;5046017;28;20034;-94
2023/12/07 02:31:13;;;;;;;16.10;10.88;;;2.10;99.90;;;;;;5046325;28;20041;-93
2023/12/07 02:33:39;;;;;;;17.17;10.13;;;2.00;99.90;;;;;;5055103;28;20052;-93
2023/12/07 02:36:05;;;;;;;17.20;10.80;;;1.90;99.90;;;;;;5043218;28;20045;-94
2023/12/07 02:38:32;;;;;;;17.15;9.50;;;1.80;99.90;;;;;;5056311;28;20024;-93
2023/12/07 02:41:00;;;;;;;16.08;10.70;;;1.70;99.90;;;;;;5057853;28;20032;-94
2023/12/07 02:43:29;;;;;;;18.23;9.50;;;1.80;99.90;;;;;;5058260;28;20051;-92
2023/12/07 02:45:54;;;;;;;15.02;10.65;;;1.70;99.90;;;;;;5035739;28;20475;-93
2023/12/07 02:48:21;;;;;;;16.02;9.60;;;1.60;99.90;;;;;;5053307;28;20039;-93
2023/12/07 02:50:47;;;;;;;15.55;11.23;;;1.50;99.90;;;;;;5053093;28;20037;-92
2023/12/07 02:53:16;;;;;;;14.70;10.82;;;1.60;99.90;;;;;;5046145;28;20026;-94
2023/12/07 02:55:41;;;;;;;14.73;8.98;;;1.40;99.90;;;;;;5061277;28;20021;-92
2023/12/07 02:58:07;;;;;;;13.52;9.05;;;1.40;99.90;;;;;;5053853;28;20253;-93
2023/12/07 03:00:33;;;;;;;13.02;9.57;;;1.30;99.90;;;;;;5061470;28;20025;-92
2023/12/07 03:02:58;;;;;;;14.75;10.85;;;1.30;99.90;;;;;;5053751;28;20055;-94
2023/12/07 03:05:24;;;;;;;12.98;9.32;;;1.30;99.90;;;;;;5046460;28;20018;-93
2023/12/07 03:07:49;;;;;;;15.48;10.32;;;1.20;99.90;;;;;;5046426;28;20440;-93
2023/12/07 03:10:15;;;;;;;15.88;11.88;;;1.30;99.90;;;;;;5054264;28;20032;-93
2023/12/07 03:12:41;;;;;;;16.77;10.52;;;1.20;99.90;;;;;;5047433;28;20018;-93
2023/12/07 03:15:07;;;;;;;13.82;9.45;;;1.20;99.90;;;;;;5059087;28;20014;-94
2023/12/07 03:17:32;;;;;;;17.00;11.25;;;1.20;99.90;;;;;;5053602;28;20081;-92
2023/12/07 03:19:58;;;;;;;14.82;9.50;;;1.20;99.90;;;;;;5060924;28;20026;-93
2023/12/07 03:22:24;;;;;;;16.30;11.55;;;1.10;99.90;;;;;;5051517;28;20041;-93
2023/12/07 03:24:51;;;;;;;16.13;9.73;;;1.10;99.90;;;;;;5057529;28;20081;-93
2023/12/07 03:27:17;;;;;;;18.00;10.40;;;1.10;99.90;;;;;;5052200;28;20096;-94
2023/12/07 03:29:43;;;;;;;15.25;10.32;;;1.10;99.90;;;;;;5054093;28;20074;-92
2023/12/07 03:32:08;;;;;;;14.45;9.80;;;1.10;99.90;;;;;;5058038;28;20025;-93
2023/12/07 03:34:34;;;;;;;14.68;10.90;;;1.00;99.90;;;;;;5045182;28;20021;-93
2023/12/07 03:37:00;;;;;;;14.25;9.43;;;1.00;99.90;;;;;;5047680;28;20029;-92
2023/12/07 03:39:25;;;;;;;19.52;10.93;;;1.00;99.90;;;;;;5055289;28;20026;-91
2023/12/07 03:41:51;;;;;;;13.98;9.43;;;0.90;99.90;;;;;;5044507;28;20033;-91
2023/12/07 03:44:17;;;;;;;16.55;10.27;;;0.90;99.90;;;;;;5046751;28;20032;-91
2023/12/07 03:46:43;;;;;;;15.32;9.32;;;0.80;99.90;;;;;;5053108;28;20052;-92
2023/12/07 03:49:08;;;;;;;15.38;10.90;;;0.80;99.90;;;;;;5049171;28;20021;-93
2023/12/07 03:51:37;;;;;;;15.35;10.20;;;0.80;99.90;;;;;;5048471;28;20026;-94
2023/12/07 03:54:03;;;;;;;15.65;10.75;;;0.80;99.90;;;;;;5047100;28;20025;-92
2023/12/07 03:56:30;;;;;;;17.58;10.18;;;0.70;99.90;;;;;;5048172;28;20087;-91
2023/12/07 03:58:56;;;;;;;15.43;10.90;;;0.70;99.90;;;;;;5056744;28;20555;-93
2023/12/07 04:01:27;;;;;;;16.00;11.68;;;0.60;99.90;;;;;;5044010;28;20021;-93
2023/12/07 04:03:56;;;;;;;17.20;10.73;;;0.60;99.90;;;;;;5041686;28;20049;-94
2023/12/07 04:06:25;;;;;;;15.10;10.30;;;0.60;99.90;;;;;;5039750;28;20037;-93
2023/12/07 04:08:51;;;;;;;19.05;11.98;;;0.60;99.90;;;;;;5047300;28;20044;-94
2023/12/07 04:11:17;;;;;;;15.57;10.43;;;0.50;99.90;;;;;;5053403;28;20029;-93
2023/12/07 04:13:43;;;;;;;15.02;9.82;;;0.40;99.90;;;;;;5046774;28;20025;-93
2023/12/07 04:16:09;;;;;;;12.98;9.73;;;0.40;99.90;;;;;;5049112;28;20029;-91
2023/12/07 04:18:36;;;;;;;17.38;10.10;;;0.30;99.90;;;;;;5054736;28;20025;-93
2023/12/07 04:21:02;;;;;;;14.05;8.55;;;0.30;99.90;;;;;;5043924;28;20036;-93
2023/12/07 04:23:31;;;;;;;13.45;9.77;;;0.20;99.90;;;;;;5044342;28;20411;-91
2023/12/07 04:25:57;;;;;;;13.75;10.70;;;0.20;99.90;;;;;;5049728;28;20021;-93
2023/12/07 04:28:22;;;;;;;16.45;9.38;;;0.20;99.90;;;;;;5039545;28;20113;-92
2023/12/07 04:30:48;;;;;;;13.15;8.60;;;0.10;99.90;;;;;;5037766;28;20040;-92
2023/12/07 04:33:14;;;;;;;14.13;10.95;;;0.10;99.90;;;;;;5038866;28;20033;-91
2023/12/07 04:35:40;;;;;;;16.27;9.93;;;0.10;99.90;;;;;;5040725;28;20036;-92
2023/12/07 04:38:07;;;;;;;14.05;8.85;;;0.10;99.90;;;;;;5034310;28;20021;-92
2023/12/07 04:40:33;;;;;;;14.63;9.57;;;0.10;99.90;;;;;;5034710;28;20314;-93
2023/12/07 04:42:59;;;;;;;15.65;9.93;;;0.10;99.90;;;;;;5058756;28;20036;-91
2023/12/07 04:45:33;;;;;;;15.85;10.02;;;0.00;99.90;;;;;;5045389;28;20076;-93
2023/12/07 04:48:00;;;;;;;20.00;12.20;;;0.10;99.90;;;;;;5041527;28;20049;-92
2023/12/07 04:50:25;;;;;;;17.30;11.07;;;0.00;99.90;;;;;;5038019;28;20040;-92
2023/12/07 04:52:51;;;;;;;16.27;10.65;;;0.10;99.90;;;;;;5044569;28;20049;-93
2023/12/07 04:55:17;;;;;;;18.27;11.90;;;0.10;99.90;;;;;;5051377;28;20025;-92
2023/12/07 04:57:42;;;;;;;18.38;10.68;;;0.00;99.90;;;;;;5053973;28;20020;-93
2023/12/07 05:00:13;;;;;;;17.17;9.93;;;0.00;99.90;;;;;;5052342;28;20026;-92
2023/12/07 05:02:39;;;;;;;15.85;10.07;;;-0.10;99.90;;;;;;5045060;28;20018;-92
2023/12/07 05:05:05;;;;;;;15.85;9.88;;;-0.10;99.90;;;;;;5043362;28;20044;-91
2023/12/07 05:07:30;;;;;;;17.88;11.32;;;0.00;99.90;;;;;;5036699;28;20583;-92
2023/12/07 05:09:56;;;;;;;14.40;10.32;;;0.00;99.90;;;;;;5038263;28;20085;-92
2023/12/07 05:12:22;;;;;;;14.70;10.75;;;0.00;99.90;;;;;;5041952;28;20017;-92
2023/12/07 05:14:52;;;;;;;15.98;8.85;;;0.00;99.90;;;;;;5040696;28;20483;-92
2023/12/07 05:17:18;;;;;;;19.10;10.50;;;0.00;99.90;;;;;;5041254;28;20059;-92
2023/12/07 05:19:47;;;;;;;15.15;11.40;;;0.00;99.90;;;;;;5038518;28;20648;-93
2023/12/07 05:22:18;;;;;;;16.70;11.07;;;0.10;99.90;;;;;;5036774;28;20103;-90
2023/12/07 05:24:50;;;;;;;16.05;10.10;;;0.10;99.90;;;;;;5041180;28;20160;-92
2023/12/07 05:27:15;;;;;;;18.77;12.27;;;0.10;99.90;;;;;;5029260;28;20030;-90
2023/12/07 05:29:41;;;;;;;19.70;11.70;;;0.10;99.90;;;;;;5036433;28;20029;-91
2023/12/07 05:32:07;;;;;;;19.15;11.82;;;0.00;99.90;;;;;;5037724;28;20034;-91
2023/12/07 05:34:35;;;;;;;19.48;12.20;;;-0.10;99.90;;;;;;5042545;28;20033;-91
2023/12/07 05:37:01;;;;;;;16.70;11.68;;;-0.10;99.90;;;;;;5055803;28;20060;-90
2023/12/07 05:39:26;;;;;;;18.33;10.57;;;-0.10;99.90;;;;;;5046802;28;20022;-91
2023/12/07 05:41:55;;;;;;;16.30;10.02;;;-0.10;99.90;;;;;;5043266;28;20034;-92
2023/12/07 05:44:22;;;;;;;20.50;11.32;;;-0.10;99.90;;;;;;5051136;28;20468;-90
2023/12/07 05:46:48;;;;;;;16.30;10.60;;;-0.10;99.90;;;;;;5056715;28;20025;-92
2023/12/07 05:49:14;;;;;;;18.00;11.50;;;-0.20;99.90;;;;;;5042717;28;20040;-92
2023/12/07 05:51:43;;;;;;;16.42;11.32;;;-0.20;99.90;;;;;;5049642;28;20037;-90
2023/12/07 05:54:08;;;;;;;16.33;12.18;;;-0.30;99.90;;;;;;5032933;28;20025;-89
2023/12/07 05:56:34;;;;;;;14.27;10.88;;;-0.40;99.90;;;;;;5040313;28;20488;-91
2023/12/07 05:58:59;;;;;;;18.27;9.82;;;-0.40;99.90;;;;;;5040881;28;20026;-90
2023/12/07 06:01:25;;;;;;;17.60;8.70;;;-0.50;99.90;;;;;;5037871;28;20531;-90
2023/12/07 06:03:50;;;;;;;17.08;9.93;;;-0.50;99.90;;;;;;5035039;28;20036;-91
2023/12/07 06:06:21;;;;;;;15.52;10.90;;;-0.60;99.90;;;;;;5040853;28;20025;-90
2023/12/07 06:08:47;;;;;;;15.60;11.02;;;-0.60;99.90;;;;;;5040240;28;20036;-90
2023/12/07 06:11:13;;;;;;;18.10;10.07;;;-0.60;99.90;;;;;;5040367;28;20033;-90
2023/12/07 06:13:38;;;;;;;19.77;10.88;;;-0.70;99.90;;;;;;5041085;28;20060;-91
2023/12/07 06:16:04;;;;;;;15.82;9.52;;;-0.70;99.90;;;;;;5050085;28;20091;-89
2023/12/07 06:18:30;;;;;;;24.17;13.95;;;-0.80;99.90;;;;;;5040835;28;20056;-89
2023/12/07 06:20:56;;;;;;;21.42;12.85;;;-0.70;99.90;;;;;;5041495;28;20037;-90
2023/12/07 06:23:25;;;;;;;17.38;11.35;;;-0.40;99.90;;;;;;5032400;28;20048;-90
2023/12/07 06:25:50;;;;;;;22.58;15.35;;;-0.40;99.90;;;;;;5041347;28;20449;-91
2023/12/07 06:28:16;;;;;;;75.03;67.68;;;-0.40;99.90;;;;;;5051071;28;20051;-91
2023/12/07 06:30:42;;;;;;;21.73;13.05;;;-0.40;99.90;;;;;;5050540;28;20034;-84
2023/12/07 06:33:08;;;;;;;21.33;14.15;;;-0.40;99.90;;;;;;5044324;28;20056;-90
2023/12/07 06:35:35;;;;;;;27.38;17.23;;;-0.40;99.90;;;;;;5046452;28;20029;-91
2023/12/07 06:38:03;;;;;;;28.80;18.45;;;-0.30;99.90;;;;;;5050116;28;20036;-92
2023/12/07 06:40:29;;;;;;;23.77;14.38;;;-0.20;99.90;;;;;;5041466;28;20021;-91
2023/12/07 06:42:54;;;;;;;24.00;15.48;;;-0.10;99.90;;;;;;5053885;28;20039;-90
2023/12/07 06:45:20;;;;;;;19.88;13.63;;;-0.20;99.90;;;;;;5043961;28;20036;-90
2023/12/07 06:47:45;;;;;;;19.75;14.13;;;-0.10;99.90;;;;;;5046280;28;20025;-91
2023/12/07 06:50:11;;;;;;;19.02;13.82;;;-0.20;99.90;;;;;;5035277;28;20026;-92
2023/12/07 06:52:46;;;;;;;23.20;13.90;;;-0.30;99.90;;;;;;5048285;28;20522;-91
2023/12/07 06:55:12;;;;;;;;;;;-0.40;99.90;;;;;;5040622;28;20487;-89
2023/12/07 06:57:38;;;;;;;23.15;15.27;;;-0.40;99.90;;;;;;5055717;28;19916;-90
2023/12/07 07:00:10;;;;;;;21.95;14.88;;;-0.40;99.90;;;;;;5045480;28;20436;-93
2023/12/07 07:02:39;;;;;;;21.40;13.73;;;-0.60;99.90;;;;;;5049197;28;20021;-91
2023/12/07 07:05:06;;;;;;;19.98;13.77;;;-0.60;99.90;;;;;;5048222;28;20025;-91
2023/12/07 07:07:31;;;;;;;22.05;14.07;;;-0.70;99.90;;;;;;5046613;28;20029;-91
2023/12/07 07:09:57;;;;;;;23.30;15.00;;;-0.80;99.90;;;;;;5042709;28;20032;-91
2023/12/07 07:12:23;;;;;;;22.58;14.73;;;-0.80;99.90;;;;;;5044604;28;20534;-90
2023/12/07 07:14:49;;;;;;;20.58;13.75;;;-0.90;99.90;;;;;;5046688;28;20026;-91
2023/12/07 07:17:17;;;;;;;21.45;15.18;;;-0.90;99.90;;;;;;5040556;28;20064;-91
2023/12/07 07:19:43;;;;;;;19.65;13.52;;;-0.80;99.90;;;;;;5041304;28;20538;-90
2023/12/07 07:22:14;;;;;;;18.88;11.88;;;-0.90;99.90;;;;;;5042172;28;20033;-90
2023/12/07 07:24:40;;;;;;;18.80;12.15;;;-0.90;99.90;;;;;;5054452;28;20060;-93
2023/12/07 07:27:06;;;;;;;23.95;13.85;;;-0.90;99.90;;;;;;5039715;28;20025;-91
2023/12/07 07:29:32;;;;;;;21.52;12.52;;;-0.90;99.90;;;;;;5041066;28;20029;-91
2023/12/07 07:31:57;;;;;;;19.25;11.95;;;-1.00;99.90;;;;;;5038150;28;20081;-91
2023/12/07 07:34:24;;;;;;;21.88;12.55;;;-1.00;99.90;;;;;;5039658;28;20056;-91
2023/12/07 07:36:50;;;;;;;22.70;11.32;;;-1.00;99.90;;;;;;5043065;28;20029;-89
2023/12/07 07:39:16;;;;;;;26.20;14.23;;;-1.00;99.90;;;;;;5039322;28;20044;-91
2023/12/07 07:41:41;;;;;;;21.10;11.05;;;-1.00;99.90;;;;;;5038691;28;20018;-91
2023/12/07 07:44:07;;;;;;;18.75;10.55;;;-1.10;99.90;;;;;;5039571;28;20083;-91
2023/12/07 07:46:33;;;;;;;17.23;10.32;;;-1.00;99.90;;;;;;5037061;28;20022;-92
2023/12/07 07:48:58;;;;;;;15.90;11.48;;;-1.00;99.90;;;;;;5044907;28;20029;-91
2023/12/07 07:51:24;;;;;;;18.10;11.40;;;-1.00;99.90;;;;;;5045050;28;20037;-92
2023/12/07 07:53:50;;;;;;;18.88;11.45;;;-1.00;99.90;;;;;;5046752;28;20021;-92
2023/12/07 07:56:18;;;;;;;18.92;12.15;;;-1.10;99.90;;;;;;5044929;28;20026;-91
2023/12/07 07:58:44;;;;;;;17.70;12.13;;;-1.00;99.90;;;;;;5041813;28;20036;-91
2023/12/07 08:01:10;;;;;;;20.98;11.02;;;-1.00;99.90;;;;;;5037576;28;20404;-90
2023/12/07 08:03:35;;;;;;;17.55;11.73;;;-0.90;99.90;;;;;;5037558;28;20340;-90
2023/12/07 08:06:01;;;;;;;17.88;12.38;;;-0.90;99.90;;;;;;5046037;28;20224;-91
2023/12/07 08:08:27;;;;;;;21.27;12.00;;;-0.90;99.90;;;;;;5037617;28;20032;-92
2023/12/07 08:10:53;;;;;;;20.08;12.48;;;-0.80;99.90;;;;;;5036349;28;20092;-91
2023/12/07 08:13:18;;;;;;;19.58;11.57;;;-0.70;99.90;;;;;;5038156;28;20022;-92
2023/12/07 08:15:44;;;;;;;19.88;11.00;;;-0.70;99.90;;;;;;5046503;28;20104;-92
2023/12/07 08:18:10;;;;;;;21.85;11.98;;;-0.60;99.90;;;;;;5040837;28;20060;-91
2023/12/07 08:20:36;;;;;;;19.75;11.32;;;-0.60;99.90;;;;;;5042600;28;20067;-91
2023/12/07 08:23:01;;;;;;;19.05;12.15;;;-0.60;99.90;;;;;;5036408;28;20022;-91
2023/12/07 08:25:27;;;;;;;21.70;11.90;;;-0.60;99.90;;;;;;5037611;28;20025;-93
2023/12/07 08:27:52;;;;;;;34.50;17.73;;;-0.50;99.90;;;;;;5041072;28;20013;-94
2023/12/07 08:30:19;;;;;;;49.30;20.38;;;-0.40;99.90;;;;;;5059510;28;20032;-92
2023/12/07 08:32:45;;;;;;;50.33;22.33;;;-0.40;99.90;;;;;;5050034;28;20033;-91
2023/12/07 08:35:13;;;;;;;25.95;14.02;;;-0.40;99.90;;;;;;5056284;28;20009;-92
2023/12/07 08:37:39;;;;;;;22.20;11.38;;;-0.30;99.90;;;;;;5044499;28;20112;-91
2023/12/07 08:40:06;;;;;;;26.50;13.63;;;-0.30;99.90;;;;;;5048370;28;20029;-92
2023/12/07 08:42:31;;;;;;;24.65;14.55;;;-0.30;99.90;;;;;;5034140;28;20026;-91
2023/12/07 08:44:57;;;;;;;26.88;14.00;;;-0.20;99.90;;;;;;5042151;28;20571;-93
2023/12/07 08:47:23;;;;;;;23.10;13.63;;;-0.10;99.90;;;;;;5034288;28;20079;-91
2023/12/07 08:49:51;;;;;;;34.65;16.38;;;0.00;99.90;;;;;;5040723;28;20407;-90
2023/12/07 08:52:17;;;;;;;32.72;16.15;;;0.10;99.90;;;;;;5040935;28;20025;-92
2023/12/07 08:54:43;;;;;;;31.75;16.20;;;0.20;99.90;;;;;;5034656;28;20059;-91
2023/12/07 08:57:09;;;;;;;35.70;18.45;;;0.30;99.90;;;;;;5042148;28;20016;-92
2023/12/07 08:59:34;;;;;;;36.70;16.33;;;0.30;99.90;;;;;;5033372;28;20045;-91
2023/12/07 09:02:00;;;;;;;26.85;15.45;;;0.30;99.90;;;;;;5042096;28;20029;-91
2023/12/07 09:04:27;;;;;;;32.35;15.93;;;0.30;99.90;;;;;;5045210;28;20076;-91
2023/12/07 09:06:53;;;;;;;26.83;16.25;;;0.30;99.90;;;;;;5037035;28;20021;-91
2023/12/07 09:09:19;;;;;;;27.63;15.23;;;0.30;99.90;;;;;;5034696;28;20040;-91
2023/12/07 09:11:45;;;;;;;31.85;18.13;;;0.30;99.90;;;;;;5042225;28;20024;-91
2023/12/07 09:14:11;;;;;;;31.90;17.13;;;0.30;99.90;;;;;;5036609;28;20062;-92
2023/12/07 09:16:43;;;;;;;28.30;14.70;;;0.50;99.90;;;;;;5052832;28;20025;-91
2023/12/07 09:19:09;;;;;;;44.38;27.05;;;0.50;99.90;;;;;;5038784;28;20064;-90
2023/12/07 09:21:35;;;;;;;39.47;20.67;;;0.60;99.90;;;;;;5045570;28;20017;-91
2023/12/07 09:24:01;;;;;;;41.15;23.35;;;0.70;99.90;;;;;;5043196;28;20029;-91
2023/12/07 09:26:27;;;;;;;42.58;18.63;;;0.90;99.90;;;;;;5039901;28;20048;-92
2023/12/07 09:28:53;;;;;;;45.05;21.02;;;0.90;99.90;;;;;;5037456;28;20029;-91
2023/12/07 09:31:18;;;;;;;35.83;19.00;;;1.00;99.90;;;;;;5047377;28;20064;-91
2023/12/07 09:33:45;;;;;;;38.13;20.58;;;1.10;99.90;;;;;;5039876;28;20021;-88
2023/12/07 09:36:11;;;;;;;39.63;19.55;;;1.20;99.90;;;;;;5048048;28;20033;-91
2023/12/07 09:38:37;;;;;;;40.97;20.42;;;1.30;99.90;;;;;;5039011;28;20029;-91
2023/12/07 09:41:03;;;;;;;40.85;20.35;;;1.30;99.90;;;;;;5046071;28;20096;-91
2023/12/07 09:43:29;;;;;;;38.05;18.08;;;1.40;99.90;;;;;;5039418;28;20026;-93
2023/12/07 09:45:56;;;;;;;43.15;20.20;;;1.40;99.90;;;;;;5038505;28;20060;-91
2023/12/07 09:48:23;;;;;;;39.88;19.48;;;1.50;99.90;;;;;;5039159;28;20026;-91
2023/12/07 09:50:49;;;;;;;39.72;20.15;;;1.60;99.90;;;;;;5038969;28;20132;-92
2023/12/07 09:53:15;;;;;;;34.03;18.00;;;1.80;99.90;;;;;;5046571;28;20030;-91
2023/12/07 09:55:41;;;;;;;34.95;19.02;;;1.90;99.90;;;;;;5040064;28;20057;-91
2023/12/07 09:58:06;;;;;;;37.83;20.17;;;2.00;99.90;;;;;;5039683;28;20033;-91
2023/12/07 10:00:33;;;;;;;35.40;18.90;;;2.10;99.90;;;;;;5047060;28;20494;-92
2023/12/07 10:02:59;;;;;;;34.53;19.42;;;2.30;99.90;;;;;;5047508;28;20373;-92
2023/12/07 10:05:24;;;;;;;29.67;16.70;;;2.40;99.90;;;;;;5040339;28;20044;-92
2023/12/07 10:07:50;;;;;;;32.50;15.95;;;2.50;99.90;;;;;;5046354;28;20554;-91
2023/12/07 10:10:17;;;;;;;33.50;17.40;;;2.60;99.90;;;;;;5048317;28;20049;-91
2023/12/07 10:13:01;;;;;;;28.95;15.80;;;2.80;99.90;;;;;;5040764;28;20041;-91
2023/12/07 10:15:28;;;;;;;26.58;14.68;;;3.00;99.90;;;;;;5033893;28;20037;-92
2023/12/07 10:17:59;;;;;;;25.52;14.15;;;3.20;99.90;;;;;;5047517;28;20037;-91
2023/12/07 10:20:26;;;;;;;24.42;13.85;;;3.30;99.90;;;;;;5037320;28;20022;-90
2023/12/07 10:23:08;;;;;;;22.58;12.75;;;3.60;99.90;;;;;;5048222;28;20028;-92
2023/12/07 10:25:42;;;;;;;18.35;12.45;;;3.70;99.90;;;;;;5032723;28;20041;-89
2023/12/07 10:28:11;;;;;;;19.35;11.40;;;3.80;99.90;;;;;;5040698;28;20100;-91
2023/12/07 10:30:39;;;;;;;19.17;11.25;;;4.00;99.90;;;;;;5042939;28;20075;-88
2023/12/07 10:33:07;;;;;;;16.55;8.75;;;4.10;99.90;;;;;;5038833;28;20105;-90
2023/12/07 10:35:33;;;;;;;15.88;9.50;;;4.20;99.90;;;;;;5038655;28;20507;-94
2023/12/07 10:38:02;;;;;;;13.35;9.98;;;4.30;99.30;;;;;;5046793;28;20025;-91
2023/12/07 10:40:27;;;;;;;14.32;10.10;;;4.60;99.70;;;;;;5034510;28;20064;-91
2023/12/07 10:42:57;;;;;;;16.13;11.13;;;4.80;98.50;;;;;;5039015;28;20048;-93
2023/12/07 10:45:26;;;;;;;12.38;9.20;;;5.00;96.90;;;;;;5040078;28;20201;-91
2023/12/07 10:47:53;;;;;;;14.07;8.27;;;5.10;94.20;;;;;;5048781;28;20025;-92
2023/12/07 10:50:23;;;;;;;11.88;8.73;;;5.10;92.90;;;;;;5040823;28;20040;-91
2023/12/07 10:52:57;;;;;;;10.35;7.43;;;5.20;92.60;;;;;;5047597;28;20146;-91
2023/12/07 10:55:28;;;;;;;12.00;7.68;;;5.40;91.40;;;;;;5033518;28;20104;-92
2023/12/07 10:57:55;;;;;;;11.65;7.63;;;5.50;90.00;;;;;;5055483;28;20025;-90
2023/12/07 11:00:27;;;;;;;11.15;8.10;;;5.60;88.60;;;;;;5056391;28;20112;-91
2023/12/07 11:02:53;;;;;;;12.07;8.50;;;5.70;88.50;;;;;;5039543;28;20075;-90
2023/12/07 11:05:19;;;;;;;13.07;8.40;;;6.00;88.80;;;;;;5049596;28;20017;-91
2023/12/07 11:08:00;;;;;;;12.63;8.30;;;6.00;88.50;;;;;;5054551;28;20025;-90
2023/12/07 11:10:32;;;;;;;;;;;6.10;86.40;;;;;;5042121;28;20021;-91
2023/12/07 11:13:31;;;;;;;11.65;8.60;;;6.10;87.40;;;;;;5045651;28;19994;-88
2023/12/07 11:15:57;;;;;;;10.82;7.32;;;6.60;87.10;;;;;;5047335;28;20029;-90
2023/12/07 11:18:26;;;;;;;16.20;9.30;;;7.00;84.30;;;;;;5030717;28;20051;-90
2023/12/07 11:20:55;;;;;;;12.30;8.15;;;7.50;81.40;;;;;;5038653;28;20052;-94
2023/12/07 11:23:21;;;;;;;8.48;7.50;;;7.80;80.50;;;;;;5039504;28;20017;-88
2023/12/07 11:25:48;;;;;;;10.45;7.03;;;8.10;74.60;;;;;;5048136;28;20033;-91
2023/12/07 11:28:15;;;;;;;9.88;6.78;;;8.30;74.90;;;;;;5039065;28;20380;-91
2023/12/07 11:30:53;;;;;;;8.27;6.90;;;8.40;74.40;;;;;;5038509;28;20051;-92
2023/12/07 11:33:19;;;;;;;9.57;7.22;;;8.60;72.70;;;;;;5043389;28;21538;-91
2023/12/07 11:36:04;;;;;;;10.20;7.40;;;8.50;72.90;;;;;;5037893;28;20095;-89
2023/12/07 11:38:30;;;;;;;14.65;8.63;;;8.40;70.80;;;;;;5031738;28;20061;-90
2023/12/07 11:40:56;;;;;;;21.80;12.23;;;8.30;73.90;;;;;;5038580;28;20026;-91
2023/12/07 11:43:40;;;;;;;19.42;11.13;;;8.10;80.20;;;;;;5051170;28;20056;-91
2023/12/07 11:46:09;;;;;;;19.83;12.20;;;8.00;82.20;;;;;;5039994;28;20535;-91
2023/12/07 11:48:34;;;;;;;18.73;11.73;;;8.10;82.00;;;;;;5041200;28;20379;-90
2023/12/07 11:51:01;;;;;;;18.10;12.82;;;8.10;81.40;;;;;;5042369;28;20037;-90
2023/12/07 11:53:32;;;;;;;18.92;10.98;;;8.40;82.30;;;;;;5038879;28;20105;-91
2023/12/07 11:56:20;;;;;;;18.33;10.50;;;8.90;78.10;;;;;;5053821;28;20021;-92
2023/12/07 11:58:46;;;;;;;19.50;11.38;;;9.20;78.50;;;;;;5040356;28;20586;-90
2023/12/07 12:01:12;;;;;;;21.95;12.13;;;9.60;75.70;;;;;;5042074;28;20036;-92
2023/12/07 12:03:39;;;;;;;19.13;12.02;;;10.10;74.90;;;;;;5028818;28;20637;-91
2023/12/07 12:06:07;;;;;;;21.15;12.70;;;10.30;73.20;;;;;;5021224;28;20026;-88
2023/12/07 12:08:33;;;;;;;20.83;12.00;;;9.40;76.40;;;;;;5020691;28;20036;-90
2023/12/07 12:10:59;;;;;;;24.30;14.02;;;9.30;76.80;;;;;;5021927;28;20057;-90
2023/12/07 12:13:34;;;;;;;21.85;13.32;;;9.40;77.30;;;;;;5017529;28;20534;-90
2023/12/07 12:16:00;;;;;;;24.25;14.15;;;9.20;76.70;;;;;;5017503;28;20840;-91
2023/12/07 12:18:27;;;;;;;20.05;12.70;;;9.40;75.40;;;;;;5019699;28;20034;-91
2023/12/07 12:20:54;;;;;;;18.95;11.30;;;9.60;75.10;;;;;;5020622;28;20026;-92
2023/12/07 12:23:20;;;;;;;19.65;11.02;;;9.70;73.30;;;;;;5025574;28;20034;-91
2023/12/07 12:25:46;;;;;;;17.45;10.98;;;9.90;72.60;;;;;;5022388;28;20030;-91
2023/12/07 12:28:19;;;;;;;19.20;11.52;;;10.50;70.60;;;;;;5013779;28;20026;-91
2023/12/07 12:30:45;;;;;;;18.08;11.15;;;10.70;69.10;;;;;;5018345;28;20023;-93
2023/12/07 12:33:12;;;;;;;18.27;11.10;;;11.20;65.40;;;;;;5017611;28;20029;-91
2023/12/07 12:35:38;;;;;;;15.32;10.48;;;10.90;66.80;;;;;;5015952;28;20043;-90
2023/12/07 12:38:12;;;;;;;15.93;10.20;;;11.20;65.10;;;;;;5016108;28;20121;-90